• Join FlightAware (Why Join?)
  • Login
  • US Flag 
03:50PM EDT


 

Airport Tracker/Info


-or-


 

Live Flight TrackerFlight Track Log ✈ ASQ5903 ✈ 11-May-2013 ✈ CYOW - KIAD

Flight Track Log - Related Links

Times and Time Zones

All times are in EDT time to prevent confusion due to time zone crossing. See the ASQ5903 flight status page for this flight to view local times or setup timezone preferences in your user account.

Time Position Orientation Groundspeed Altitude Reporting Facility
EDT Latitude Longitude Course Direction KTS MPH feet Rate Location/Type
07:38AM 45.2833 -75.6167 200° South 190 219 2,300  Level Montreal Center
07:39AM 45.2333 -75.5333 130° Southeast 250 288 4,400 2,160 Climbing Montreal Center
07:40AM 45.1833 -75.5000 155° Southeast 260 299 6,700 2,460 Climbing Montreal Center
07:41AM 45.1167 -75.5333 199° South 240 276 9,400 2,100 Climbing Montreal Center
07:42AM 45.0667 -75.6167 230° Southwest 270 311 10,900 1,260 Climbing Montreal Center
07:43AM 44.6386 -75.8829 198° South  Level FlightAware Approximate
07:43AM 45.0167 -75.6833 223° Southwest 300 345 12,000  Level Montreal Center
07:44AM 44.5441 -75.9280 200° South  Level FlightAware Approximate
07:44AM 44.9333 -75.7833 220° Southwest 330 380 13,000  Level Montreal Center
07:45AM 44.8667 -75.8500 215° Southwest 330 380 14,000 1,020 Climbing Montreal Center
07:46AM 44.7667 -75.9000 200° South 340 391 15,100 1,020 Climbing Montreal Center
07:47AM 44.7000 -75.9667 215° Southwest 350 403 16,100 960 Climbing Montreal Center
07:48AM 44.6000 -76.0000 193° South 360 414 17,100 1,140 Climbing Montreal Center
07:49AM 44.5000 -76.0000 180° South 360 414 18,400 1,140 Climbing Montreal Center
07:50AM 44.4000 -76.0167 187° South 370 426 19,400 900 Climbing Montreal Center
07:51AM 44.3578 -76.0206 184° South 376 433 19,900 900 Climbing Boston Center
07:52AM 44.2511 -76.0314 184° South 382 440 20,900 960 Climbing Boston Center
07:53AM 44.1467 -76.0425 184° South 387 445 21,900 1,020 Climbing Boston Center
07:54AM 44.0400 -76.0533 184° South 387 445 23,000 1,020 Climbing Boston Center
07:55AM 43.9350 -76.0703 187° South 387 445 24,000 960 Climbing Boston Center
07:56AM 43.8283 -76.0867 186° South 387 445 25,000 960 Climbing Boston Center
07:57AM 43.7214 -76.1061 187° South 387 445 26,000 960 Climbing Boston Center
07:58AM 43.6186 -76.1258 188° South 387 445 27,000 960 Climbing Boston Center
07:59AM 43.5158 -76.1453 188° South 387 445 28,000 900 Climbing Boston Center
08:00AM 43.4150 -76.1650 188° South 382 440 29,000 900 Climbing Boston Center
08:01AM 43.2892 -76.1856 187° South 382 440 30,000 480 Climbing Boston Center
08:02AM 43.1822 -76.2047 187° South 382 440 30,000  Level Boston Center
08:03AM 43.0842 -76.2697 206° Southwest 387 445 30,000  Level Boston Center
08:05AM 42.8722 -76.4442 211° Southwest 407 468 30,000  Level New York Center
08:06AM 42.7836 -76.5156 211° Southwest 401 461 30,000  Level New York Center
08:07AM 42.6925 -76.5922 212° Southwest 391 450 30,000  Level New York Center
08:08AM 42.6039 -76.6603 209° Southwest 386 444 30,000  Level New York Center
08:09AM 42.5147 -76.7367 212° Southwest 380 437 30,000  Level New York Center
08:10AM 42.4217 -76.8094 210° Southwest 386 444 30,000  Level New York Center
08:11AM 42.3258 -76.8878 211° Southwest 396 456 30,000  Level New York Center
08:12AM 42.2303 -76.9656 211° Southwest 407 468 30,000 -120 Level New York Center
08:13AM 42.1392 -77.0383 211° Southwest 407 468 29,800 -960 Descending New York Center
08:14AM 42.0414 -77.1156 210° Southwest 407 468 28,100 -960 Descending New York Center
08:15AM 41.9478 -77.1875 210° Southwest 407 468 28,000 -60 Descending New York Center
08:16AM 41.8606 -77.2597 212° Southwest 402 463 28,000  Level New York Center
08:17AM 41.7672 -77.3314 210° Southwest 396 456 28,000  Level New York Center
08:18AM 41.6756 -77.4058 211° Southwest 396 456 28,000  Level New York Center
08:19AM 41.5797 -77.4794 210° Southwest 396 456 28,000 -360 Level New York Center
08:20AM 41.4839 -77.5558 211° Southwest 406 467 27,400 -1,320 Descending New York Center
08:21AM 41.3856 -77.6344 211° Southwest 411 473 25,500 -1,920 Descending New York Center
08:22AM 41.2872 -77.7100 210° Southwest 411 473 23,500 -1,800 Descending New York Center
08:23AM 41.1956 -77.7806 210° Southwest 411 473 22,000 -780 Descending New York Center
08:24AM 41.1042 -77.8483 209° Southwest 400 460 22,000  Level New York Center
08:25AM 41.0081 -77.9208 210° Southwest 395 455 22,000 -960 Level New York Center
08:26AM 40.9061 -77.9542 194° South 400 460 20,100 -1,500 Descending New York Center
08:27AM 40.8081 -77.8833 151° Southeast 362 417 19,000 -600 Descending New York Center
08:28AM 40.7200 -77.7867 140° Southeast 374 430 19,000  Level New York Center
08:29AM 40.6256 -77.6950 144° Southeast 395 455 19,000  Level New York Center
08:30AM 40.5203 -77.6378 158° South 412 474 19,000  Level New York Center
08:31AM 40.4028 -77.5797 159° South 412 474 19,000  Level New York Center
08:32AM 40.3097 -77.5325 159° South 412 474 19,000 -480 Level New York Center
08:33AM 40.1939 -77.4778 160° South 412 474 18,100 -1,500 Descending New York Center
08:34AM 40.0967 -77.4278 159° South 391 450 16,000 -1,620 Descending New York Center
08:36AM 39.8833 -77.3167 158° South 378 435 12,900 -1,560 Descending Potomac TRACON
08:37AM 39.7833 -77.3000 173° South 353 406 11,000 -1,500 Descending Potomac TRACON
08:38AM 39.7167 -77.3167 191° South 281 323 10,000 -780 Descending Potomac TRACON
08:39AM 39.6667 -77.3333 194° South 256 295 9,600 -780 Descending Potomac TRACON
08:40AM 39.5833 -77.3500 189° South 255 293 8,600 -1,020 Descending Potomac TRACON
08:41AM 39.5333 -77.3833 207° Southwest 244 281 7,600 -840 Descending Potomac TRACON
08:42AM 39.4667 -77.4333 210° Southwest 231 266 7,000 -360 Descending Potomac TRACON
08:43AM 39.4000 -77.4500 191° South 251 289 7,000 -420 Level Potomac TRACON
08:44AM 39.3333 -77.4500 180° South 248 285 6,300 -900 Descending Potomac TRACON
08:45AM 39.2833 -77.4500 180° South 256 295 5,400 -840 Descending Potomac TRACON
08:46AM 39.2000 -77.4500 180° South 244 281 4,800 -1,020 Descending Potomac TRACON
08:47AM 39.1333 -77.4500 180° South 266 306 3,500 -1,380 Descending Potomac TRACON
08:48AM 39.0667 -77.4500 180° South 243 280 2,200 -1,200 Descending Potomac TRACON
08:49AM 39.0167 -77.4667 195° South 182 209 1,100 -1,020 Descending Potomac TRACON
08:51AM 38.9474 -77.4599 180° South  Level Estimated
08:58AM 38.9474 -77.4599 349° North  Level Estimated
08:59AM 38.9474 -77.4599 349° North  Level Estimated
09:00AM 38.9474 -77.4599 349° North  Level Estimated
09:01AM 38.9474 -77.4599 349° North  Level Estimated